CSN2326 ZUCK-ZSPD
Flight info
| Callsign | CSN2326 |
|---|---|
| Flight time | 1h 56m |
| Altitude | 32100 |
| Route | AGVIL W24 OSNOV G586 QP B330 ELKAL W179 SUMUN W3 ASIPO W678 SEGDA |
| Aircraft | A320/M-SDE3GHIJ2J3J5M1RVWXYZ/LB2D1 |
Departure
| Time | 2026-05-07 08:26 |
|---|---|
| Airport | Chongqing Jiangbei International Airport (ZUCK) |
Arrival
| Time | 2026-05-07 10:22 |
|---|---|
| Airport | Shanghai Pudong International Airport (ZSPD) |
| Time | Latitude | Longitude | Altitude | Speed | Heading |
|---|---|---|---|---|---|
| 2026-05-07 06:44 | 29.73412 | 106.66307 | 1374 ft | 0 kts | 257° |
| 2026-05-07 08:13 | 29.73415 | 106.66321 | 1373 ft | 2 kts | 257° |
| 2026-05-07 08:14 | 29.73418 | 106.66338 | 1373 ft | 2 kts | 257° |
| 2026-05-07 08:14 | 29.73422 | 106.66355 | 1373 ft | 2 kts | 257° |
| 2026-05-07 08:14 | 29.73425 | 106.66372 | 1373 ft | 2 kts | 257° |
| 2026-05-07 08:14 | 29.73427 | 106.66389 | 1373 ft | 2 kts | 258° |
| 2026-05-07 08:15 | 29.73431 | 106.66406 | 1373 ft | 2 kts | 258° |
| 2026-05-07 08:15 | 29.73434 | 106.66422 | 1373 ft | 2 kts | 258° |
| 2026-05-07 08:15 | 29.73436 | 106.66433 | 1373 ft | 0 kts | 259° |
| 2026-05-07 08:15 | 29.73437 | 106.66438 | 1373 ft | 0 kts | 212° |
| 2026-05-07 08:16 | 29.73443 | 106.66441 | 1373 ft | 1 kts | 195° |
| 2026-05-07 08:16 | 29.73444 | 106.66441 | 1373 ft | 0 kts | 196° |
| 2026-05-07 08:17 | 29.73427 | 106.66434 | 1373 ft | 7 kts | 198° |
| 2026-05-07 08:18 | 29.73369 | 106.66414 | 1373 ft | 9 kts | 197° |
| 2026-05-07 08:18 | 29.73301 | 106.66391 | 1373 ft | 8 kts | 196° |
| 2026-05-07 08:18 | 29.73261 | 106.66390 | 1373 ft | 4 kts | 155° |
| 2026-05-07 08:18 | 29.73237 | 106.66419 | 1373 ft | 5 kts | 118° |
| 2026-05-07 08:19 | 29.73222 | 106.66463 | 1373 ft | 6 kts | 108° |
| 2026-05-07 08:19 | 29.73208 | 106.66514 | 1373 ft | 7 kts | 116° |
| 2026-05-07 08:19 | 29.73168 | 106.66541 | 1373 ft | 7 kts | 194° |
| 2026-05-07 08:19 | 29.73105 | 106.66520 | 1373 ft | 12 kts | 198° |
| 2026-05-07 08:20 | 29.73011 | 106.66488 | 1373 ft | 15 kts | 197° |
| 2026-05-07 08:20 | 29.72897 | 106.66448 | 1373 ft | 18 kts | 197° |
| 2026-05-07 08:20 | 29.72763 | 106.66402 | 1373 ft | 21 kts | 197° |
| 2026-05-07 08:20 | 29.72616 | 106.66351 | 1373 ft | 21 kts | 197° |
| 2026-05-07 08:21 | 29.72471 | 106.66301 | 1373 ft | 21 kts | 197° |
| 2026-05-07 08:21 | 29.72330 | 106.66252 | 1373 ft | 20 kts | 197° |
| 2026-05-07 08:21 | 29.72193 | 106.66204 | 1373 ft | 20 kts | 197° |
| 2026-05-07 08:21 | 29.72057 | 106.66157 | 1372 ft | 20 kts | 197° |
| 2026-05-07 08:22 | 29.71922 | 106.66111 | 1372 ft | 19 kts | 197° |
| 2026-05-07 08:22 | 29.71791 | 106.66065 | 1372 ft | 19 kts | 197° |
| 2026-05-07 08:22 | 29.71663 | 106.66020 | 1372 ft | 19 kts | 197° |
| 2026-05-07 08:22 | 29.71565 | 106.65987 | 1372 ft | 5 kts | 196° |
| 2026-05-07 08:23 | 29.71557 | 106.65985 | 1372 ft | 1 kts | 196° |
| 2026-05-07 08:23 | 29.71540 | 106.65979 | 1372 ft | 3 kts | 196° |
| 2026-05-07 08:23 | 29.71513 | 106.65975 | 1372 ft | 4 kts | 175° |
| 2026-05-07 08:23 | 29.71484 | 106.65997 | 1372 ft | 5 kts | 122° |
| 2026-05-07 08:24 | 29.71470 | 106.66041 | 1372 ft | 6 kts | 105° |
| 2026-05-07 08:24 | 29.71458 | 106.66092 | 1372 ft | 7 kts | 105° |
| 2026-05-07 08:24 | 29.71453 | 106.66142 | 1372 ft | 5 kts | 76° |
| 2026-05-07 08:24 | 29.71480 | 106.66163 | 1372 ft | 5 kts | 18° |
| 2026-05-07 08:25 | 29.71547 | 106.66187 | 1372 ft | 30 kts | 17° |
| 2026-05-07 08:25 | 29.71984 | 106.66338 | 1373 ft | 98 kts | 16° |
| 2026-05-07 08:25 | 29.72832 | 106.66631 | 1374 ft | 153 kts | 17° |
| 2026-05-07 08:25 | 29.74011 | 106.67036 | 1464 ft | 190 kts | 20° |
| 2026-05-07 08:26 | 29.76417 | 106.67960 | 2911 ft | 181 kts | 23° |
| 2026-05-07 08:26 | 29.77537 | 106.68537 | 3613 ft | 176 kts | 30° |
| 2026-05-07 08:26 | 29.78586 | 106.69272 | 4083 ft | 185 kts | 36° |
| 2026-05-07 08:27 | 29.79657 | 106.70230 | 4447 ft | 201 kts | 40° |
| 2026-05-07 08:27 | 29.80812 | 106.71236 | 4798 ft | 221 kts | 35° |
| 2026-05-07 08:27 | 29.82162 | 106.72254 | 5153 ft | 242 kts | 33° |
| 2026-05-07 08:27 | 29.83651 | 106.73332 | 5661 ft | 259 kts | 33° |
| 2026-05-07 08:28 | 29.85193 | 106.74436 | 6363 ft | 265 kts | 35° |
| 2026-05-07 08:28 | 29.86459 | 106.75935 | 7083 ft | 270 kts | 62° |
| 2026-05-07 08:28 | 29.86979 | 106.78013 | 7846 ft | 274 kts | 85° |
| 2026-05-07 08:28 | 29.87090 | 106.80187 | 8602 ft | 279 kts | 87° |
| 2026-05-07 08:29 | 29.87213 | 106.82436 | 9346 ft | 285 kts | 88° |
| 2026-05-07 08:29 | 29.87342 | 106.84715 | 10076 ft | 290 kts | 88° |
| 2026-05-07 08:29 | 29.87477 | 106.87052 | 10657 ft | 301 kts | 87° |
| 2026-05-07 08:29 | 29.87623 | 106.89516 | 11025 ft | 318 kts | 87° |
| 2026-05-07 08:30 | 29.87782 | 106.92122 | 11356 ft | 336 kts | 86° |
| 2026-05-07 08:30 | 29.87950 | 106.94891 | 11707 ft | 354 kts | 86° |
| 2026-05-07 08:30 | 29.88128 | 106.97745 | 12242 ft | 363 kts | 86° |
| 2026-05-07 08:30 | 29.88311 | 107.00684 | 12940 ft | 366 kts | 87° |
| 2026-05-07 08:31 | 29.88492 | 107.03604 | 13599 ft | 370 kts | 88° |
| 2026-05-07 08:31 | 29.88672 | 107.06568 | 14199 ft | 375 kts | 87° |
| 2026-05-07 08:31 | 29.88854 | 107.09551 | 14744 ft | 380 kts | 87° |
| 2026-05-07 08:31 | 29.89040 | 107.12604 | 15250 ft | 386 kts | 87° |
| 2026-05-07 08:32 | 29.89229 | 107.15717 | 15775 ft | 392 kts | 87° |
| 2026-05-07 08:32 | 29.89418 | 107.18845 | 16318 ft | 396 kts | 87° |
| 2026-05-07 08:32 | 29.89610 | 107.22033 | 16954 ft | 397 kts | 87° |
| 2026-05-07 08:32 | 29.89800 | 107.25185 | 17466 ft | 402 kts | 87° |
| 2026-05-07 08:33 | 29.89993 | 107.28435 | 17930 ft | 407 kts | 87° |
| 2026-05-07 08:33 | 29.90188 | 107.31702 | 18424 ft | 412 kts | 87° |
| 2026-05-07 08:33 | 29.90381 | 107.34973 | 18895 ft | 416 kts | 86° |
| 2026-05-07 08:33 | 29.90576 | 107.38284 | 19397 ft | 419 kts | 86° |
| 2026-05-07 08:34 | 29.90774 | 107.41659 | 19990 ft | 419 kts | 86° |
| 2026-05-07 08:34 | 29.90970 | 107.44996 | 20468 ft | 423 kts | 86° |
| 2026-05-07 08:34 | 29.91165 | 107.48351 | 20917 ft | 427 kts | 86° |
| 2026-05-07 08:34 | 29.91363 | 107.51775 | 21351 ft | 431 kts | 86° |
| 2026-05-07 08:35 | 29.91564 | 107.55257 | 21785 ft | 435 kts | 86° |
| 2026-05-07 08:35 | 29.91764 | 107.58730 | 22205 ft | 439 kts | 86° |
| 2026-05-07 08:35 | 29.91964 | 107.62212 | 22615 ft | 443 kts | 86° |
| 2026-05-07 08:35 | 29.92169 | 107.65788 | 23040 ft | 446 kts | 86° |
| 2026-05-07 08:36 | 29.92370 | 107.69353 | 23496 ft | 449 kts | 86° |
| 2026-05-07 08:36 | 29.92571 | 107.72932 | 23945 ft | 451 kts | 86° |
| 2026-05-07 08:36 | 29.92770 | 107.76532 | 24351 ft | 455 kts | 86° |
| 2026-05-07 08:36 | 29.93054 | 107.80194 | 24761 ft | 458 kts | 82° |
| 2026-05-07 08:37 | 29.93569 | 107.83772 | 25187 ft | 460 kts | 77° |
| 2026-05-07 08:37 | 29.94350 | 107.87382 | 25641 ft | 461 kts | 72° |
| 2026-05-07 08:37 | 29.95243 | 107.90924 | 26033 ft | 464 kts | 72° |
| 2026-05-07 08:37 | 29.96159 | 107.94466 | 26394 ft | 467 kts | 72° |
| 2026-05-07 08:38 | 29.97086 | 107.98059 | 26789 ft | 469 kts | 72° |
| 2026-05-07 08:38 | 29.98008 | 108.01663 | 27188 ft | 471 kts | 72° |
| 2026-05-07 08:38 | 29.98925 | 108.05277 | 27554 ft | 474 kts | 72° |
| 2026-05-07 08:38 | 29.99856 | 108.08957 | 27910 ft | 477 kts | 71° |
| 2026-05-07 08:39 | 30.00777 | 108.12618 | 28261 ft | 479 kts | 71° |
| 2026-05-07 08:39 | 30.01704 | 108.16306 | 28634 ft | 481 kts | 71° |
| 2026-05-07 08:39 | 30.02633 | 108.20016 | 28988 ft | 484 kts | 71° |
| 2026-05-07 08:39 | 30.03572 | 108.23762 | 29436 ft | 484 kts | 71° |
| 2026-05-07 08:40 | 30.04495 | 108.27455 | 29891 ft | 483 kts | 71° |
| 2026-05-07 08:40 | 30.05429 | 108.31197 | 30292 ft | 484 kts | 71° |
| 2026-05-07 08:40 | 30.06354 | 108.34905 | 30658 ft | 486 kts | 71° |
| 2026-05-07 08:40 | 30.07292 | 108.38667 | 31027 ft | 487 kts | 71° |
| 2026-05-07 08:41 | 30.08212 | 108.42364 | 31404 ft | 487 kts | 71° |
| 2026-05-07 08:41 | 30.09151 | 108.46137 | 31744 ft | 489 kts | 71° |
| 2026-05-07 08:41 | 30.10093 | 108.49931 | 32032 ft | 491 kts | 71° |
| 2026-05-07 08:41 | 30.11033 | 108.53685 | 32303 ft | 494 kts | 70° |
| 2026-05-07 08:42 | 30.12036 | 108.57469 | 32612 ft | 495 kts | 68° |
| 2026-05-07 08:42 | 30.13139 | 108.61267 | 32885 ft | 496 kts | 67° |
| 2026-05-07 08:42 | 30.14243 | 108.65009 | 33142 ft | 498 kts | 68° |
| 2026-05-07 08:42 | 30.15370 | 108.68835 | 33183 ft | 501 kts | 68° |
| 2026-05-07 08:43 | 30.17582 | 108.76434 | 33197 ft | 502 kts | 68° |
| 2026-05-07 08:43 | 30.19791 | 108.84061 | 33204 ft | 502 kts | 68° |
| 2026-05-07 08:44 | 30.21998 | 108.91687 | 33214 ft | 501 kts | 69° |
| 2026-05-07 08:44 | 30.23982 | 108.99428 | 33218 ft | 501 kts | 71° |
| 2026-05-07 08:45 | 30.25873 | 109.07179 | 33214 ft | 501 kts | 71° |
| 2026-05-07 08:45 | 30.27753 | 109.14866 | 33215 ft | 501 kts | 71° |
| 2026-05-07 08:46 | 30.29650 | 109.22629 | 33216 ft | 499 kts | 71° |
| 2026-05-07 08:46 | 30.31522 | 109.30302 | 33214 ft | 499 kts | 71° |
| 2026-05-07 08:47 | 30.33403 | 109.38008 | 33218 ft | 498 kts | 71° |
| 2026-05-07 08:47 | 30.35280 | 109.45709 | 33220 ft | 498 kts | 71° |
| 2026-05-07 08:48 | 30.37142 | 109.53416 | 33214 ft | 497 kts | 71° |
| 2026-05-07 08:48 | 30.38918 | 109.61109 | 33222 ft | 499 kts | 75° |
| 2026-05-07 08:49 | 30.40169 | 109.69006 | 33220 ft | 500 kts | 79° |
| 2026-05-07 08:49 | 30.41313 | 109.76977 | 33223 ft | 500 kts | 78° |
| 2026-05-07 08:50 | 30.42461 | 109.84879 | 33223 ft | 501 kts | 78° |
| 2026-05-07 08:50 | 30.43611 | 109.92793 | 33227 ft | 500 kts | 78° |
| 2026-05-07 08:51 | 30.44768 | 110.00742 | 33229 ft | 500 kts | 79° |
| 2026-05-07 08:51 | 30.45909 | 110.08627 | 33232 ft | 500 kts | 79° |
| 2026-05-07 08:52 | 30.47058 | 110.16592 | 33232 ft | 500 kts | 79° |
| 2026-05-07 08:52 | 30.48191 | 110.24507 | 33233 ft | 500 kts | 78° |
| 2026-05-07 08:53 | 30.49324 | 110.32443 | 33237 ft | 500 kts | 79° |
| 2026-05-07 08:53 | 30.50447 | 110.40343 | 33251 ft | 500 kts | 78° |
| 2026-05-07 08:54 | 30.51571 | 110.48280 | 33257 ft | 499 kts | 79° |
| 2026-05-07 08:54 | 30.52688 | 110.56231 | 33258 ft | 501 kts | 78° |
| 2026-05-07 08:55 | 30.53796 | 110.64124 | 33265 ft | 501 kts | 79° |
| 2026-05-07 08:55 | 30.54907 | 110.72111 | 33261 ft | 500 kts | 79° |
| 2026-05-07 08:56 | 30.56008 | 110.80061 | 33260 ft | 501 kts | 79° |
| 2026-05-07 08:56 | 30.57103 | 110.88001 | 33258 ft | 501 kts | 79° |
| 2026-05-07 08:57 | 30.58200 | 110.95931 | 33241 ft | 501 kts | 79° |
| 2026-05-07 08:57 | 30.59293 | 111.03909 | 33237 ft | 502 kts | 79° |
| 2026-05-07 08:58 | 30.60361 | 111.11732 | 33231 ft | 502 kts | 79° |
| 2026-05-07 08:58 | 30.61445 | 111.19731 | 33220 ft | 501 kts | 79° |
| 2026-05-07 08:59 | 30.62514 | 111.27651 | 33206 ft | 501 kts | 79° |
| 2026-05-07 08:59 | 30.63591 | 111.35658 | 33196 ft | 501 kts | 78° |
| 2026-05-07 09:00 | 30.64656 | 111.43614 | 33179 ft | 502 kts | 78° |
| 2026-05-07 09:00 | 30.65445 | 111.51679 | 33175 ft | 504 kts | 84° |
| 2026-05-07 09:01 | 30.65849 | 111.59737 | 33166 ft | 505 kts | 85° |
| 2026-05-07 09:01 | 30.66244 | 111.67851 | 33159 ft | 505 kts | 85° |
| 2026-05-07 09:02 | 30.66657 | 111.76002 | 33156 ft | 505 kts | 85° |
| 2026-05-07 09:02 | 30.67071 | 111.84109 | 33156 ft | 506 kts | 85° |
| 2026-05-07 09:03 | 30.67480 | 111.92257 | 33160 ft | 508 kts | 85° |
| 2026-05-07 09:03 | 30.67929 | 112.00462 | 33155 ft | 508 kts | 83° |
| 2026-05-07 09:04 | 30.68497 | 112.08562 | 33158 ft | 507 kts | 83° |
| 2026-05-07 09:04 | 30.69074 | 112.16754 | 33154 ft | 508 kts | 83° |
| 2026-05-07 09:05 | 30.69628 | 112.24886 | 33157 ft | 508 kts | 83° |
| 2026-05-07 09:05 | 30.70175 | 112.33057 | 33151 ft | 508 kts | 83° |
| 2026-05-07 09:06 | 30.70714 | 112.41232 | 33149 ft | 508 kts | 83° |
| 2026-05-07 09:06 | 30.71249 | 112.49380 | 33144 ft | 508 kts | 83° |
| 2026-05-07 09:07 | 30.71778 | 112.57539 | 33143 ft | 508 kts | 83° |
| 2026-05-07 09:07 | 30.72305 | 112.65685 | 33139 ft | 508 kts | 84° |
| 2026-05-07 09:08 | 30.72820 | 112.73824 | 33138 ft | 507 kts | 84° |
| 2026-05-07 09:08 | 30.73334 | 112.82010 | 33139 ft | 507 kts | 83° |
| 2026-05-07 09:09 | 30.73840 | 112.90100 | 33135 ft | 506 kts | 84° |
| 2026-05-07 09:09 | 30.74343 | 112.98229 | 33137 ft | 506 kts | 84° |
| 2026-05-07 09:10 | 30.74843 | 113.06390 | 33133 ft | 505 kts | 83° |
| 2026-05-07 09:10 | 30.75317 | 113.14477 | 33136 ft | 505 kts | 85° |
| 2026-05-07 09:11 | 30.75558 | 113.22653 | 33135 ft | 505 kts | 86° |
| 2026-05-07 09:11 | 30.75755 | 113.30820 | 33131 ft | 505 kts | 86° |
| 2026-05-07 09:12 | 30.75953 | 113.38940 | 33134 ft | 505 kts | 86° |
| 2026-05-07 09:12 | 30.76154 | 113.47065 | 33130 ft | 504 kts | 86° |
| 2026-05-07 09:13 | 30.76349 | 113.55196 | 33128 ft | 505 kts | 86° |
| 2026-05-07 09:13 | 30.76541 | 113.63342 | 33128 ft | 505 kts | 86° |
| 2026-05-07 09:14 | 30.76727 | 113.71486 | 33118 ft | 505 kts | 86° |
| 2026-05-07 09:14 | 30.76904 | 113.79569 | 33126 ft | 505 kts | 86° |
| 2026-05-07 09:15 | 30.77084 | 113.87768 | 33121 ft | 505 kts | 86° |
| 2026-05-07 09:15 | 30.77253 | 113.95850 | 33119 ft | 505 kts | 86° |
| 2026-05-07 09:16 | 30.77444 | 114.04031 | 33121 ft | 505 kts | 85° |
| 2026-05-07 09:16 | 30.77816 | 114.12172 | 33110 ft | 505 kts | 82° |
| 2026-05-07 09:17 | 30.78774 | 114.20219 | 33109 ft | 505 kts | 74° |
| 2026-05-07 09:17 | 30.80631 | 114.28022 | 33109 ft | 500 kts | 65° |
| 2026-05-07 09:18 | 30.83092 | 114.35534 | 33112 ft | 498 kts | 63° |
| 2026-05-07 09:18 | 30.85568 | 114.43029 | 33112 ft | 499 kts | 64° |
| 2026-05-07 09:19 | 30.88000 | 114.50555 | 33108 ft | 499 kts | 64° |
| 2026-05-07 09:19 | 30.90468 | 114.58153 | 33111 ft | 498 kts | 64° |
| 2026-05-07 09:20 | 30.92908 | 114.65678 | 33105 ft | 497 kts | 64° |
| 2026-05-07 09:20 | 30.95330 | 114.73199 | 33123 ft | 498 kts | 65° |
| 2026-05-07 09:21 | 30.97750 | 114.80714 | 33118 ft | 498 kts | 64° |
| 2026-05-07 09:21 | 31.00178 | 114.88258 | 33114 ft | 499 kts | 64° |
| 2026-05-07 09:22 | 31.02604 | 114.95812 | 33107 ft | 499 kts | 65° |
| 2026-05-07 09:22 | 31.05031 | 115.03403 | 33109 ft | 498 kts | 65° |
| 2026-05-07 09:23 | 31.07438 | 115.10934 | 33109 ft | 498 kts | 65° |
| 2026-05-07 09:23 | 31.09841 | 115.18470 | 33116 ft | 497 kts | 65° |
| 2026-05-07 09:24 | 31.12247 | 115.25993 | 33116 ft | 496 kts | 65° |
| 2026-05-07 09:24 | 31.14677 | 115.33546 | 33124 ft | 497 kts | 64° |
| 2026-05-07 09:25 | 31.17116 | 115.41035 | 33138 ft | 497 kts | 64° |
| 2026-05-07 09:25 | 31.19569 | 115.48603 | 33140 ft | 498 kts | 65° |
| 2026-05-07 09:26 | 31.21982 | 115.56098 | 33144 ft | 497 kts | 65° |
| 2026-05-07 09:26 | 31.24408 | 115.63644 | 33162 ft | 497 kts | 65° |
| 2026-05-07 09:27 | 31.26829 | 115.71226 | 33172 ft | 498 kts | 66° |
| 2026-05-07 09:28 | 31.30440 | 115.82539 | 33180 ft | 497 kts | 65° |
| 2026-05-07 09:28 | 31.32847 | 115.90068 | 33174 ft | 497 kts | 65° |
| 2026-05-07 09:29 | 31.35313 | 115.97617 | 33167 ft | 497 kts | 65° |
| 2026-05-07 09:29 | 31.37781 | 116.05165 | 33160 ft | 496 kts | 65° |
| 2026-05-07 09:30 | 31.40237 | 116.12710 | 33162 ft | 497 kts | 65° |
| 2026-05-07 09:30 | 31.42683 | 116.20247 | 33153 ft | 498 kts | 65° |
| 2026-05-07 09:31 | 31.45118 | 116.27787 | 33151 ft | 497 kts | 65° |
| 2026-05-07 09:31 | 31.47554 | 116.35337 | 33147 ft | 496 kts | 65° |
| 2026-05-07 09:32 | 31.49988 | 116.42899 | 33148 ft | 496 kts | 65° |
| 2026-05-07 09:32 | 31.52404 | 116.50420 | 33130 ft | 497 kts | 65° |
| 2026-05-07 09:33 | 31.54821 | 116.57967 | 33131 ft | 496 kts | 65° |
| 2026-05-07 09:33 | 31.57252 | 116.65575 | 33134 ft | 496 kts | 66° |
| 2026-05-07 09:34 | 31.59648 | 116.73116 | 33121 ft | 496 kts | 66° |
| 2026-05-07 09:34 | 31.62054 | 116.80706 | 33126 ft | 497 kts | 66° |
| 2026-05-07 09:35 | 31.64455 | 116.88277 | 33106 ft | 495 kts | 66° |
| 2026-05-07 09:35 | 31.66834 | 116.95782 | 33108 ft | 495 kts | 66° |
| 2026-05-07 09:36 | 31.69217 | 117.03348 | 33121 ft | 495 kts | 67° |
| 2026-05-07 09:36 | 31.71568 | 117.10957 | 33120 ft | 494 kts | 67° |
| 2026-05-07 09:37 | 31.73894 | 117.18497 | 33121 ft | 495 kts | 67° |
| 2026-05-07 09:37 | 31.75906 | 117.26237 | 33108 ft | 499 kts | 75° |
| 2026-05-07 09:38 | 31.76868 | 117.34290 | 33111 ft | 501 kts | 85° |
| 2026-05-07 09:38 | 31.76719 | 117.42442 | 33114 ft | 501 kts | 95° |
| 2026-05-07 09:39 | 31.76108 | 117.50576 | 33112 ft | 501 kts | 95° |
| 2026-05-07 09:39 | 31.75503 | 117.58715 | 33105 ft | 501 kts | 95° |
| 2026-05-07 09:40 | 31.74923 | 117.66841 | 33104 ft | 501 kts | 95° |
| 2026-05-07 09:40 | 31.74350 | 117.74979 | 33101 ft | 501 kts | 95° |
| 2026-05-07 09:41 | 31.73775 | 117.83094 | 33106 ft | 501 kts | 95° |
| 2026-05-07 09:41 | 31.73189 | 117.91222 | 33109 ft | 501 kts | 95° |
| 2026-05-07 09:42 | 31.72601 | 117.99353 | 33101 ft | 500 kts | 95° |
| 2026-05-07 09:42 | 31.72006 | 118.07491 | 33110 ft | 500 kts | 96° |
| 2026-05-07 09:43 | 31.71419 | 118.15608 | 33101 ft | 500 kts | 95° |
| 2026-05-07 09:43 | 31.70858 | 118.23722 | 33098 ft | 500 kts | 95° |
| 2026-05-07 09:44 | 31.70290 | 118.31821 | 33094 ft | 499 kts | 95° |
| 2026-05-07 09:44 | 31.69719 | 118.39895 | 33090 ft | 499 kts | 95° |
| 2026-05-07 09:45 | 31.69142 | 118.48009 | 33086 ft | 500 kts | 95° |
| 2026-05-07 09:45 | 31.68559 | 118.56106 | 33080 ft | 499 kts | 95° |
| 2026-05-07 09:46 | 31.67970 | 118.64216 | 33077 ft | 500 kts | 95° |
| 2026-05-07 09:46 | 31.67383 | 118.72295 | 33080 ft | 500 kts | 96° |
| 2026-05-07 09:47 | 31.66780 | 118.80431 | 33074 ft | 500 kts | 95° |
| 2026-05-07 09:47 | 31.66182 | 118.88501 | 33078 ft | 500 kts | 96° |
| 2026-05-07 09:48 | 31.65569 | 118.96621 | 33073 ft | 500 kts | 95° |
| 2026-05-07 09:48 | 31.64959 | 119.04768 | 33066 ft | 500 kts | 95° |
| 2026-05-07 09:49 | 31.64534 | 119.12863 | 33071 ft | 500 kts | 93° |
| 2026-05-07 09:49 | 31.64178 | 119.20985 | 33068 ft | 500 kts | 93° |
| 2026-05-07 09:50 | 31.63823 | 119.29123 | 33071 ft | 500 kts | 94° |
| 2026-05-07 09:50 | 31.63454 | 119.37219 | 33068 ft | 499 kts | 94° |
| 2026-05-07 09:51 | 31.63069 | 119.45351 | 33071 ft | 500 kts | 94° |
| 2026-05-07 09:51 | 31.62683 | 119.53419 | 33070 ft | 499 kts | 93° |
| 2026-05-07 09:52 | 31.62291 | 119.61554 | 33060 ft | 500 kts | 93° |
| 2026-05-07 09:52 | 31.61904 | 119.69603 | 33074 ft | 499 kts | 94° |
| 2026-05-07 09:53 | 31.61532 | 119.77734 | 32983 ft | 495 kts | 94° |
| 2026-05-07 09:53 | 31.61348 | 119.81728 | 32416 ft | 495 kts | 94° |
| 2026-05-07 09:53 | 31.61160 | 119.85802 | 31287 ft | 506 kts | 94° |
| 2026-05-07 09:53 | 31.60967 | 119.89922 | 30219 ft | 514 kts | 94° |
| 2026-05-07 09:54 | 31.60771 | 119.94083 | 29329 ft | 516 kts | 94° |
| 2026-05-07 09:54 | 31.60571 | 119.98312 | 28516 ft | 517 kts | 94° |
| 2026-05-07 09:54 | 31.60370 | 120.02499 | 27882 ft | 513 kts | 94° |
| 2026-05-07 09:54 | 31.60174 | 120.06596 | 27402 ft | 506 kts | 94° |
| 2026-05-07 09:55 | 31.59976 | 120.10698 | 26915 ft | 500 kts | 94° |
| 2026-05-07 09:55 | 31.59783 | 120.14699 | 26441 ft | 494 kts | 94° |
| 2026-05-07 09:55 | 31.59589 | 120.18689 | 25963 ft | 488 kts | 94° |
| 2026-05-07 09:55 | 31.59392 | 120.22655 | 25490 ft | 483 kts | 93° |
| 2026-05-07 09:56 | 31.59201 | 120.26517 | 25032 ft | 477 kts | 94° |
| 2026-05-07 09:56 | 31.58901 | 120.30370 | 24557 ft | 472 kts | 99° |
| 2026-05-07 09:56 | 31.58264 | 120.34105 | 24081 ft | 467 kts | 106° |
| 2026-05-07 09:56 | 31.57311 | 120.37709 | 23618 ft | 462 kts | 110° |
| 2026-05-07 09:57 | 31.56260 | 120.41235 | 23150 ft | 458 kts | 111° |
| 2026-05-07 09:57 | 31.55191 | 120.44752 | 22675 ft | 455 kts | 110° |
| 2026-05-07 09:57 | 31.54143 | 120.48218 | 22229 ft | 452 kts | 110° |
| 2026-05-07 09:57 | 31.53110 | 120.51667 | 21769 ft | 449 kts | 110° |
| 2026-05-07 09:58 | 31.52087 | 120.55109 | 21296 ft | 446 kts | 110° |
| 2026-05-07 09:58 | 31.51079 | 120.58514 | 20820 ft | 443 kts | 110° |
| 2026-05-07 09:58 | 31.50075 | 120.61903 | 20354 ft | 440 kts | 110° |
| 2026-05-07 09:58 | 31.49086 | 120.65234 | 19904 ft | 437 kts | 111° |
| 2026-05-07 09:59 | 31.48099 | 120.68574 | 19442 ft | 433 kts | 111° |
| 2026-05-07 09:59 | 31.47111 | 120.71912 | 18974 ft | 429 kts | 111° |
| 2026-05-07 09:59 | 31.46149 | 120.75154 | 18509 ft | 426 kts | 111° |
| 2026-05-07 09:59 | 31.45169 | 120.78444 | 18049 ft | 422 kts | 111° |
| 2026-05-07 10:00 | 31.44199 | 120.81634 | 17592 ft | 419 kts | 111° |
| 2026-05-07 10:00 | 31.43208 | 120.84822 | 17144 ft | 416 kts | 111° |
| 2026-05-07 10:00 | 31.42218 | 120.87985 | 16674 ft | 413 kts | 112° |
| 2026-05-07 10:00 | 31.41240 | 120.91115 | 16226 ft | 410 kts | 111° |
| 2026-05-07 10:01 | 31.40141 | 120.94186 | 15776 ft | 405 kts | 120° |
| 2026-05-07 10:01 | 31.38703 | 120.96930 | 15524 ft | 392 kts | 129° |
| 2026-05-07 10:01 | 31.37028 | 120.99409 | 15524 ft | 389 kts | 133° |
| 2026-05-07 10:01 | 31.35284 | 121.01852 | 15524 ft | 390 kts | 133° |
| 2026-05-07 10:02 | 31.33541 | 121.04275 | 15543 ft | 390 kts | 133° |
| 2026-05-07 10:02 | 31.31799 | 121.06709 | 15553 ft | 391 kts | 133° |
| 2026-05-07 10:02 | 31.30069 | 121.09140 | 15581 ft | 391 kts | 133° |
| 2026-05-07 10:02 | 31.28312 | 121.11617 | 15605 ft | 391 kts | 133° |
| 2026-05-07 10:03 | 31.26592 | 121.14047 | 15597 ft | 391 kts | 133° |
| 2026-05-07 10:03 | 31.24868 | 121.16484 | 15583 ft | 391 kts | 133° |
| 2026-05-07 10:03 | 31.23117 | 121.18958 | 15602 ft | 391 kts | 133° |
| 2026-05-07 10:03 | 31.21394 | 121.21389 | 15559 ft | 390 kts | 133° |
| 2026-05-07 10:04 | 31.19668 | 121.23827 | 15568 ft | 390 kts | 133° |
| 2026-05-07 10:04 | 31.17928 | 121.26280 | 15556 ft | 390 kts | 133° |
| 2026-05-07 10:04 | 31.16204 | 121.28707 | 15179 ft | 392 kts | 133° |
| 2026-05-07 10:04 | 31.14487 | 121.31124 | 14715 ft | 390 kts | 133° |
| 2026-05-07 10:05 | 31.12870 | 121.33689 | 14246 ft | 391 kts | 123° |
| 2026-05-07 10:05 | 31.11727 | 121.36541 | 13851 ft | 389 kts | 110° |
| 2026-05-07 10:05 | 31.10983 | 121.39546 | 13733 ft | 384 kts | 105° |
| 2026-05-07 10:05 | 31.10320 | 121.42580 | 13747 ft | 385 kts | 105° |
| 2026-05-07 10:06 | 31.09670 | 121.45585 | 13731 ft | 385 kts | 105° |
| 2026-05-07 10:06 | 31.09004 | 121.48598 | 13725 ft | 384 kts | 105° |
| 2026-05-07 10:06 | 31.08320 | 121.51623 | 13719 ft | 384 kts | 106° |
| 2026-05-07 10:06 | 31.07637 | 121.54617 | 13595 ft | 380 kts | 106° |
| 2026-05-07 10:07 | 31.06957 | 121.57573 | 12922 ft | 386 kts | 106° |
| 2026-05-07 10:07 | 31.06247 | 121.60638 | 12239 ft | 390 kts | 105° |
| 2026-05-07 10:07 | 31.05542 | 121.63686 | 11878 ft | 383 kts | 105° |
| 2026-05-07 10:07 | 31.04860 | 121.66640 | 11528 ft | 376 kts | 106° |
| 2026-05-07 10:08 | 31.04086 | 121.69523 | 11189 ft | 368 kts | 117° |
| 2026-05-07 10:08 | 31.02579 | 121.71840 | 10858 ft | 352 kts | 144° |
| 2026-05-07 10:08 | 31.00454 | 121.73093 | 10601 ft | 334 kts | 170° |
| 2026-05-07 10:08 | 30.98203 | 121.73581 | 10330 ft | 322 kts | 174° |
| 2026-05-07 10:09 | 30.96047 | 121.74074 | 9869 ft | 313 kts | 170° |
| 2026-05-07 10:09 | 30.93969 | 121.74689 | 9399 ft | 304 kts | 167° |
| 2026-05-07 10:09 | 30.91973 | 121.75375 | 8985 ft | 294 kts | 166° |
| 2026-05-07 10:09 | 30.90047 | 121.76084 | 8640 ft | 290 kts | 165° |
| 2026-05-07 10:10 | 30.88133 | 121.76800 | 8305 ft | 287 kts | 165° |
| 2026-05-07 10:10 | 30.86236 | 121.77512 | 7993 ft | 285 kts | 164° |
| 2026-05-07 10:10 | 30.84352 | 121.78220 | 7682 ft | 283 kts | 164° |
| 2026-05-07 10:10 | 30.82481 | 121.78925 | 7381 ft | 280 kts | 163° |
| 2026-05-07 10:11 | 30.80640 | 121.79619 | 7089 ft | 278 kts | 163° |
| 2026-05-07 10:11 | 30.78795 | 121.80311 | 6918 ft | 269 kts | 163° |
| 2026-05-07 10:11 | 30.77065 | 121.80959 | 6883 ft | 254 kts | 163° |
| 2026-05-07 10:11 | 30.75400 | 121.81599 | 6801 ft | 249 kts | 159° |
| 2026-05-07 10:12 | 30.74029 | 121.82767 | 6512 ft | 249 kts | 122° |
| 2026-05-07 10:12 | 30.73515 | 121.84635 | 6257 ft | 244 kts | 87° |
| 2026-05-07 10:12 | 30.73881 | 121.86533 | 6048 ft | 239 kts | 68° |
| 2026-05-07 10:12 | 30.74453 | 121.88339 | 5965 ft | 240 kts | 68° |
| 2026-05-07 10:13 | 30.75013 | 121.90176 | 5815 ft | 239 kts | 69° |
| 2026-05-07 10:13 | 30.75708 | 121.91928 | 5505 ft | 240 kts | 56° |
| 2026-05-07 10:13 | 30.76560 | 121.93591 | 5146 ft | 242 kts | 57° |
| 2026-05-07 10:13 | 30.77590 | 121.95091 | 4977 ft | 231 kts | 34° |
| 2026-05-07 10:14 | 30.78995 | 121.95798 | 4965 ft | 213 kts | 6° |
| 2026-05-07 10:14 | 30.80423 | 121.95656 | 4967 ft | 204 kts | 340° |
| 2026-05-07 10:14 | 30.81733 | 121.95002 | 4983 ft | 206 kts | 335° |
| 2026-05-07 10:14 | 30.83033 | 121.94286 | 4978 ft | 206 kts | 335° |
| 2026-05-07 10:15 | 30.84351 | 121.93613 | 4978 ft | 206 kts | 339° |
| 2026-05-07 10:15 | 30.85698 | 121.93055 | 4977 ft | 205 kts | 341° |
| 2026-05-07 10:15 | 30.87070 | 121.92534 | 4973 ft | 206 kts | 342° |
| 2026-05-07 10:15 | 30.88433 | 121.92024 | 4843 ft | 205 kts | 342° |
| 2026-05-07 10:16 | 30.89770 | 121.91523 | 4694 ft | 197 kts | 342° |
| 2026-05-07 10:16 | 30.91069 | 121.91035 | 4407 ft | 193 kts | 342° |
| 2026-05-07 10:16 | 30.92323 | 121.90562 | 4132 ft | 189 kts | 342° |
| 2026-05-07 10:16 | 30.93579 | 121.90086 | 3866 ft | 184 kts | 342° |
| 2026-05-07 10:17 | 30.94789 | 121.89629 | 3611 ft | 180 kts | 342° |
| 2026-05-07 10:17 | 30.95960 | 121.89185 | 3367 ft | 176 kts | 342° |
| 2026-05-07 10:17 | 30.97127 | 121.88744 | 3122 ft | 173 kts | 343° |
| 2026-05-07 10:17 | 30.98247 | 121.88319 | 2879 ft | 160 kts | 343° |
| 2026-05-07 10:18 | 30.99276 | 121.87930 | 2666 ft | 148 kts | 344° |
| 2026-05-07 10:18 | 31.00221 | 121.87572 | 2499 ft | 140 kts | 344° |
| 2026-05-07 10:18 | 31.01143 | 121.87225 | 2334 ft | 139 kts | 344° |
| 2026-05-07 10:18 | 31.02066 | 121.86877 | 2166 ft | 138 kts | 345° |
| 2026-05-07 10:19 | 31.02982 | 121.86530 | 1991 ft | 137 kts | 345° |
| 2026-05-07 10:19 | 31.03877 | 121.86195 | 1819 ft | 135 kts | 345° |
| 2026-05-07 10:19 | 31.04776 | 121.85865 | 1626 ft | 134 kts | 345° |
| 2026-05-07 10:19 | 31.05657 | 121.85516 | 1432 ft | 133 kts | 345° |
| 2026-05-07 10:20 | 31.06541 | 121.85178 | 1223 ft | 133 kts | 346° |
| 2026-05-07 10:20 | 31.07424 | 121.84853 | 1056 ft | 133 kts | 346° |
| 2026-05-07 10:20 | 31.08308 | 121.84534 | 930 ft | 132 kts | 346° |
| 2026-05-07 10:20 | 31.09195 | 121.84194 | 785 ft | 132 kts | 346° |
| 2026-05-07 10:21 | 31.10066 | 121.83864 | 606 ft | 132 kts | 346° |
| 2026-05-07 10:21 | 31.10941 | 121.83521 | 387 ft | 131 kts | 346° |
| 2026-05-07 10:21 | 31.11817 | 121.83193 | 208 ft | 131 kts | 347° |
| 2026-05-07 10:21 | 31.12702 | 121.82861 | 68 ft | 132 kts | 347° |
| 2026-05-07 10:22 | 31.13546 | 121.82557 | 21 ft | 110 kts | 341° |
| 2026-05-07 10:22 | 31.14115 | 121.82336 | 21 ft | 61 kts | 343° |
| 2026-05-07 10:22 | 31.14323 | 121.82232 | 21 ft | 21 kts | 318° |
| 2026-05-07 10:22 | 31.14416 | 121.82126 | 21 ft | 14 kts | 312° |
| 2026-05-07 10:23 | 31.14483 | 121.82046 | 21 ft | 14 kts | 316° |
| 2026-05-07 10:23 | 31.14564 | 121.81964 | 21 ft | 16 kts | 329° |
| 2026-05-07 10:23 | 31.14677 | 121.81915 | 21 ft | 18 kts | 342° |
| 2026-05-07 10:23 | 31.14802 | 121.81866 | 21 ft | 19 kts | 342° |
| 2026-05-07 10:24 | 31.14930 | 121.81820 | 21 ft | 10 kts | 340° |
| 2026-05-07 10:24 | 31.14977 | 121.81768 | 21 ft | 11 kts | 276° |
| 2026-05-07 10:24 | 31.14954 | 121.81668 | 21 ft | 14 kts | 252° |
| 2026-05-07 10:24 | 31.14922 | 121.81551 | 21 ft | 16 kts | 253° |
| 2026-05-07 10:25 | 31.14884 | 121.81416 | 21 ft | 18 kts | 252° |
| 2026-05-07 10:25 | 31.14842 | 121.81263 | 21 ft | 20 kts | 251° |
| 2026-05-07 10:25 | 31.14803 | 121.81126 | 21 ft | 12 kts | 252° |
| 2026-05-07 10:25 | 31.14796 | 121.81064 | 21 ft | 6 kts | 296° |
| 2026-05-07 10:26 | 31.14839 | 121.81041 | 21 ft | 8 kts | 342° |
| 2026-05-07 10:26 | 31.14891 | 121.81022 | 21 ft | 8 kts | 342° |
| 2026-05-07 10:26 | 31.14928 | 121.80993 | 21 ft | 5 kts | 297° |
| 2026-05-07 10:26 | 31.14925 | 121.80954 | 21 ft | 3 kts | 238° |
| 2026-05-07 10:27 | 31.14912 | 121.80925 | 21 ft | 4 kts | 250° |
| 2026-05-07 10:27 | 31.14904 | 121.80897 | 21 ft | 0 kts | 251° |
| 2026-05-07 10:27 | 31.14903 | 121.80893 | 21 ft | 0 kts | 251° |